sensor_id;sensor_type;location;lat;lon;timestamp;pressure;altitude;pressure_sealevel;temperature;humidity
49627;BME280;35527;54.616;39.786;2022-09-09T00:01:46;100428.91;;;6.17;100.00
49627;BME280;35527;54.616;39.786;2022-09-09T00:05:12;100443.47;;;6.19;100.00
49627;BME280;35527;54.616;39.786;2022-09-09T00:08:27;100424.72;;;6.08;100.00
49627;BME280;35527;54.616;39.786;2022-09-09T00:11:43;100451.16;;;6.19;100.00
49627;BME280;35527;54.616;39.786;2022-09-09T00:14:56;100446.91;;;6.17;100.00
49627;BME280;35527;54.616;39.786;2022-09-09T00:18:11;100440.16;;;6.08;100.00
49627;BME280;35527;54.616;39.786;2022-09-09T00:21:36;100441.81;;;6.14;100.00
49627;BME280;35527;54.616;39.786;2022-09-09T00:27:54;100440.13;;;6.11;100.00
49627;BME280;35527;54.616;39.786;2022-09-09T00:31:04;100458.91;;;6.16;100.00
49627;BME280;35527;54.616;39.786;2022-09-09T00:34:23;100464.88;;;6.20;100.00
49627;BME280;35527;54.616;39.786;2022-09-09T00:37:34;100466.47;;;6.30;100.00
49627;BME280;35527;54.616;39.786;2022-09-09T00:40:52;100457.19;;;6.15;100.00
49627;BME280;35527;54.616;39.786;2022-09-09T00:57:36;100479.50;;;6.13;100.00
49627;BME280;35527;54.616;39.786;2022-09-09T01:00:48;100457.28;;;6.07;100.00
49627;BME280;35527;54.616;39.786;2022-09-09T01:03:56;100448.81;;;5.98;100.00
49627;BME280;35527;54.616;39.786;2022-09-09T01:07:16;100442.88;;;5.86;100.00
49627;BME280;35527;54.616;39.786;2022-09-09T01:10:32;100451.44;;;5.90;100.00
49627;BME280;35527;54.616;39.786;2022-09-09T01:13:42;100448.88;;;5.93;100.00
49627;BME280;35527;54.616;39.786;2022-09-09T01:16:54;100458.28;;;5.93;100.00
49627;BME280;35527;54.616;39.786;2022-09-09T01:20:29;100477.06;;;5.98;100.00
49627;BME280;35527;54.616;39.786;2022-09-09T01:27:06;100469.44;;;5.85;100.00
49627;BME280;35527;54.616;39.786;2022-09-09T01:30:14;100481.38;;;5.96;100.00
49627;BME280;35527;54.616;39.786;2022-09-09T01:33:18;100452.34;;;5.84;100.00
49627;BME280;35527;54.616;39.786;2022-09-09T01:36:33;100483.13;;;5.91;100.00
49627;BME280;35527;54.616;39.786;2022-09-09T01:39:42;100460.13;;;5.77;100.00
49627;BME280;35527;54.616;39.786;2022-09-09T01:42:49;100479.69;;;5.90;100.00
49627;BME280;35527;54.616;39.786;2022-09-09T01:45:55;100478.94;;;5.77;100.00
49627;BME280;35527;54.616;39.786;2022-09-09T01:49:03;100495.13;;;5.85;100.00
49627;BME280;35527;54.616;39.786;2022-09-09T01:52:08;100490.06;;;5.79;100.00
49627;BME280;35527;54.616;39.786;2022-09-09T01:55:14;100495.19;;;5.79;100.00
49627;BME280;35527;54.616;39.786;2022-09-09T01:58:25;100506.31;;;5.80;100.00
49627;BME280;35527;54.616;39.786;2022-09-09T02:04:54;100508.94;;;5.72;100.00
49627;BME280;35527;54.616;39.786;2022-09-09T02:08:29;100502.09;;;5.74;100.00
49627;BME280;35527;54.616;39.786;2022-09-09T02:11:42;100517.50;;;5.74;100.00
49627;BME280;35527;54.616;39.786;2022-09-09T02:15:02;100508.94;;;5.74;100.00
49627;BME280;35527;54.616;39.786;2022-09-09T02:18:21;100514.09;;;5.71;100.00
49627;BME280;35527;54.616;39.786;2022-09-09T02:21:28;100480.13;;;5.36;100.00
49627;BME280;35527;54.616;39.786;2022-09-09T02:25:00;100519.22;;;5.69;100.00
49627;BME280;35527;54.616;39.786;2022-09-09T02:28:06;100526.09;;;5.69;100.00
49627;BME280;35527;54.616;39.786;2022-09-09T02:31:18;100509.03;;;5.60;100.00
49627;BME280;35527;54.616;39.786;2022-09-09T02:34:27;100521.84;;;5.64;100.00
49627;BME280;35527;54.616;39.786;2022-09-09T02:37:38;100532.94;;;5.73;100.00
49627;BME280;35527;54.616;39.786;2022-09-09T02:40:43;100526.16;;;5.59;100.00
49627;BME280;35527;54.616;39.786;2022-09-09T02:43:45;100518.47;;;5.58;100.00
49627;BME280;35527;54.616;39.786;2022-09-09T02:47:16;100555.16;;;5.74;100.00
49627;BME280;35527;54.616;39.786;2022-09-09T02:57:17;100542.50;;;5.52;100.00
49627;BME280;35527;54.616;39.786;2022-09-09T03:00:27;100567.22;;;5.67;100.00
49627;BME280;35527;54.616;39.786;2022-09-09T03:03:36;100574.88;;;5.69;100.00
49627;BME280;35527;54.616;39.786;2022-09-09T03:06:43;100571.47;;;5.70;100.00
49627;BME280;35527;54.616;39.786;2022-09-09T03:09:53;100571.44;;;5.73;100.00
49627;BME280;35527;54.616;39.786;2022-09-09T03:13:26;100583.41;;;5.74;100.00
49627;BME280;35527;54.616;39.786;2022-09-09T03:16:30;100584.28;;;5.73;100.00
49627;BME280;35527;54.616;39.786;2022-09-09T03:19:36;100551.00;;;5.57;100.00
49627;BME280;35527;54.616;39.786;2022-09-09T03:22:42;100589.34;;;5.82;100.00
49627;BME280;35527;54.616;39.786;2022-09-09T03:25:51;100585.97;;;5.78;100.00
49627;BME280;35527;54.616;39.786;2022-09-09T03:29:04;100597.88;;;5.85;100.00
49627;BME280;35527;54.616;39.786;2022-09-09T03:32:09;100594.44;;;5.86;100.00
49627;BME280;35527;54.616;39.786;2022-09-09T03:35:15;100560.31;;;5.72;100.00
49627;BME280;35527;54.616;39.786;2022-09-09T03:38:18;100586.72;;;5.91;100.00
49627;BME280;35527;54.616;39.786;2022-09-09T03:41:24;100591.00;;;5.94;100.00
49627;BME280;35527;54.616;39.786;2022-09-09T03:44:31;100609.78;;;6.00;100.00
49627;BME280;35527;54.616;39.786;2022-09-09T03:47:35;100608.97;;;5.98;100.00
49627;BME280;35527;54.616;39.786;2022-09-09T03:50:48;100614.97;;;5.99;100.00
49627;BME280;35527;54.616;39.786;2022-09-09T03:53:52;100615.81;;;5.99;100.00
49627;BME280;35527;54.616;39.786;2022-09-09T03:56:58;100606.44;;;5.95;100.00
49627;BME280;35527;54.616;39.786;2022-09-09T04:00:06;100611.56;;;5.89;100.00
49627;BME280;35527;54.616;39.786;2022-09-09T04:03:18;100632.03;;;6.03;100.00
49627;BME280;35527;54.616;39.786;2022-09-09T04:06:23;100597.88;;;5.88;100.00
49627;BME280;35527;54.616;39.786;2022-09-09T04:09:27;100626.88;;;6.06;100.00
49627;BME280;35527;54.616;39.786;2022-09-09T04:12:32;100639.66;;;6.18;100.00
49627;BME280;35527;54.616;39.786;2022-09-09T04:15:36;100645.56;;;6.28;100.00
49627;BME280;35527;54.616;39.786;2022-09-09T04:19:06;100654.91;;;6.40;100.00
49627;BME280;35527;54.616;39.786;2022-09-09T04:22:18;100642.78;;;6.54;100.00
49627;BME280;35527;54.616;39.786;2022-09-09T04:25:25;100643.63;;;6.54;100.00
49627;BME280;35527;54.616;39.786;2022-09-09T04:28:31;100635.88;;;6.58;100.00
49627;BME280;35527;54.616;39.786;2022-09-09T04:31:34;100641.94;;;6.53;100.00
49627;BME280;35527;54.616;39.786;2022-09-09T04:34:38;100653.03;;;6.59;100.00
49627;BME280;35527;54.616;39.786;2022-09-09T04:37:45;100623.97;;;6.49;100.00
49627;BME280;35527;54.616;39.786;2022-09-09T04:40:51;100618.81;;;6.49;100.00
49627;BME280;35527;54.616;39.786;2022-09-09T04:43:58;100646.91;;;6.70;100.00
49627;BME280;35527;54.616;39.786;2022-09-09T04:47:04;100655.47;;;6.69;100.00
49627;BME280;35527;54.616;39.786;2022-09-09T04:50:08;100630.66;;;6.65;100.00
49627;BME280;35527;54.616;39.786;2022-09-09T04:53:11;100659.66;;;6.84;100.00
49627;BME280;35527;54.616;39.786;2022-09-09T04:56:17;100634.78;;;6.82;100.00
49627;BME280;35527;54.616;39.786;2022-09-09T04:59:30;100662.09;;;6.95;100.00
49627;BME280;35527;54.616;39.786;2022-09-09T05:02:39;100647.53;;;6.95;100.00
49627;BME280;35527;54.616;39.786;2022-09-09T05:05:42;100646.56;;;7.04;100.00
49627;BME280;35527;54.616;39.786;2022-09-09T05:08:48;100669.56;;;7.18;100.00
49627;BME280;35527;54.616;39.786;2022-09-09T05:11:58;100670.34;;;7.25;100.00
49627;BME280;35527;54.616;39.786;2022-09-09T05:15:09;100667.78;;;7.23;100.00
49627;BME280;35527;54.616;39.786;2022-09-09T05:18:14;100652.50;;;7.11;100.00
49627;BME280;35527;54.616;39.786;2022-09-09T05:21:23;100678.94;;;7.23;100.00
49627;BME280;35527;54.616;39.786;2022-09-09T05:24:28;100678.00;;;7.29;100.00
49627;BME280;35527;54.616;39.786;2022-09-09T05:27:38;100685.69;;;7.32;100.00
49627;BME280;35527;54.616;39.786;2022-09-09T05:30:44;100686.50;;;7.37;100.00
49627;BME280;35527;54.616;39.786;2022-09-09T05:33:48;100668.59;;;7.27;100.00
49627;BME280;35527;54.616;39.786;2022-09-09T05:36:52;100686.41;;;7.43;100.00
49627;BME280;35527;54.616;39.786;2022-09-09T05:40:00;100668.47;;;7.37;100.00
49627;BME280;35527;54.616;39.786;2022-09-09T05:43:04;100693.06;;;7.64;100.00
49627;BME280;35527;54.616;39.786;2022-09-09T05:46:11;100703.25;;;7.72;100.00
49627;BME280;35527;54.616;39.786;2022-09-09T05:49:16;100704.88;;;7.78;100.00
49627;BME280;35527;54.616;39.786;2022-09-09T05:52:20;100689.50;;;7.72;100.00
49627;BME280;35527;54.616;39.786;2022-09-09T05:55:23;100696.13;;;7.93;100.00
49627;BME280;35527;54.616;39.786;2022-09-09T05:58:28;100712.00;;;8.22;100.00
49627;BME280;35527;54.616;39.786;2022-09-09T06:01:34;100712.63;;;8.40;100.00
49627;BME280;35527;54.616;39.786;2022-09-09T06:04:38;100702.09;;;8.52;100.00
49627;BME280;35527;54.616;39.786;2022-09-09T06:07:42;100716.00;;;8.94;100.00
49627;BME280;35527;54.616;39.786;2022-09-09T06:10:49;100710.44;;;9.17;100.00
49627;BME280;35527;54.616;39.786;2022-09-09T06:13:52;100706.41;;;9.47;100.00
49627;BME280;35527;54.616;39.786;2022-09-09T06:16:56;100703.84;;;9.86;100.00
49627;BME280;35527;54.616;39.786;2022-09-09T06:20:04;100683.25;;;10.21;100.00
49627;BME280;35527;54.616;39.786;2022-09-09T06:23:09;100721.50;;;10.81;100.00
49627;BME280;35527;54.616;39.786;2022-09-09T06:29:25;100693.78;;;11.17;94.43
49627;BME280;35527;54.616;39.786;2022-09-09T06:32:29;100706.19;;;11.67;90.80
49627;BME280;35527;54.616;39.786;2022-09-09T06:35:35;100668.84;;;11.74;86.96
49627;BME280;35527;54.616;39.786;2022-09-09T06:38:44;100713.69;;;11.46;86.01
49627;BME280;35527;54.616;39.786;2022-09-09T06:41:49;100698.28;;;11.71;86.97
49627;BME280;35527;54.616;39.786;2022-09-09T06:45:33;100703.47;;;12.29;84.33
49627;BME280;35527;54.616;39.786;2022-09-09T06:48:40;100689.56;;;12.83;76.67
49627;BME280;35527;54.616;39.786;2022-09-09T06:51:52;100724.94;;;13.38;70.89
49627;BME280;35527;54.616;39.786;2022-09-09T06:54:56;100713.41;;;12.96;71.43
49627;BME280;35527;54.616;39.786;2022-09-09T06:58:02;100715.66;;;12.80;72.66
49627;BME280;35527;54.616;39.786;2022-09-09T07:01:06;100718.22;;;13.32;72.12
49627;BME280;35527;54.616;39.786;2022-09-09T07:04:12;100725.22;;;13.30;65.92
49627;BME280;35527;54.616;39.786;2022-09-09T07:07:19;100738.44;;;12.72;67.74
49627;BME280;35527;54.616;39.786;2022-09-09T07:10:27;100737.75;;;12.92;71.09
49627;BME280;35527;54.616;39.786;2022-09-09T07:13:30;100725.88;;;13.37;66.05
49627;BME280;35527;54.616;39.786;2022-09-09T07:16:35;100740.63;;;13.60;63.93
49627;BME280;35527;54.616;39.786;2022-09-09T07:19:40;100742.53;;;13.78;61.73
49627;BME280;35527;54.616;39.786;2022-09-09T07:22:45;100735.28;;;14.32;57.95
49627;BME280;35527;54.616;39.786;2022-09-09T07:25:51;100754.09;;;13.94;57.77
49627;BME280;35527;54.616;39.786;2022-09-09T07:28:58;100738.69;;;13.88;58.32
49627;BME280;35527;54.616;39.786;2022-09-09T07:32:03;100754.47;;;13.84;53.43
49627;BME280;35527;54.616;39.786;2022-09-09T07:35:10;100736.78;;;13.46;51.59
49627;BME280;35527;54.616;39.786;2022-09-09T07:38:17;100759.63;;;14.31;49.49
49627;BME280;35527;54.616;39.786;2022-09-09T07:41:28;100760.09;;;14.40;48.62
49627;BME280;35527;54.616;39.786;2022-09-09T07:44:33;100761.38;;;13.61;49.96
49627;BME280;35527;54.616;39.786;2022-09-09T07:47:43;100747.19;;;13.46;50.14
49627;BME280;35527;54.616;39.786;2022-09-09T07:50:50;100757.97;;;12.84;48.67
49627;BME280;35527;54.616;39.786;2022-09-09T07:54:03;100765.16;;;12.76;47.37
49627;BME280;35527;54.616;39.786;2022-09-09T07:57:09;100787.66;;;12.77;48.77
49627;BME280;35527;54.616;39.786;2022-09-09T08:00:13;100763.16;;;12.57;49.48
49627;BME280;35527;54.616;39.786;2022-09-09T08:03:25;100787.03;;;12.69;48.92
49627;BME280;35527;54.616;39.786;2022-09-09T08:06:37;100762.50;;;12.51;49.31
49627;BME280;35527;54.616;39.786;2022-09-09T08:09:47;100772.31;;;12.41;49.31
49627;BME280;35527;54.616;39.786;2022-09-09T08:12:55;100770.06;;;12.30;50.22
49627;BME280;35527;54.616;39.786;2022-09-09T08:16:17;100789.84;;;12.34;51.37
49627;BME280;35527;54.616;39.786;2022-09-09T08:19:20;100779.06;;;12.47;53.17
49627;BME280;35527;54.616;39.786;2022-09-09T08:22:23;100784.28;;;12.73;51.50
49627;BME280;35527;54.616;39.786;2022-09-09T08:25:27;100797.00;;;12.82;52.33
49627;BME280;35527;54.616;39.786;2022-09-09T08:28:32;100800.16;;;12.64;51.72
49627;BME280;35527;54.616;39.786;2022-09-09T08:31:38;100801.00;;;12.65;53.10
49627;BME280;35527;54.616;39.786;2022-09-09T08:34:42;100796.69;;;12.37;51.91
49627;BME280;35527;54.616;39.786;2022-09-09T08:37:54;100799.69;;;12.23;52.87
49627;BME280;35527;54.616;39.786;2022-09-09T08:50:39;100782.53;;;16.08;42.08
49627;BME280;35527;54.616;39.786;2022-09-09T08:53:59;100800.38;;;15.18;43.78
49627;BME280;35527;54.616;39.786;2022-09-09T08:57:17;100796.50;;;15.08;45.01
49627;BME280;35527;54.616;39.786;2022-09-09T09:00:27;100793.72;;;14.47;46.29
49627;BME280;35527;54.616;39.786;2022-09-09T09:07:02;100789.56;;;13.73;49.02
49627;BME280;35527;54.616;39.786;2022-09-09T09:17:06;100790.19;;;14.48;47.20
49627;BME280;35527;54.616;39.786;2022-09-09T09:20:14;100812.59;;;14.30;47.22
49627;BME280;35527;54.616;39.786;2022-09-09T09:23:25;100806.47;;;14.09;48.54
49627;BME280;35527;54.616;39.786;2022-09-09T09:26:35;100802.88;;;13.64;49.33
49627;BME280;35527;54.616;39.786;2022-09-09T09:29:46;100790.88;;;13.37;49.68
49627;BME280;35527;54.616;39.786;2022-09-09T09:33:17;100807.91;;;13.45;50.46
49627;BME280;35527;54.616;39.786;2022-09-09T09:36:46;100808.69;;;13.47;48.55
49627;BME280;35527;54.616;39.786;2022-09-09T09:40:08;100812.09;;;13.49;48.26
49627;BME280;35527;54.616;39.786;2022-09-09T09:43:23;100799.94;;;13.23;48.43
49627;BME280;35527;54.616;39.786;2022-09-09T09:46:28;100792.09;;;13.00;48.33
49627;BME280;35527;54.616;39.786;2022-09-09T09:49:59;100792.03;;;14.00;47.07
49627;BME280;35527;54.616;39.786;2022-09-09T09:53:29;100804.84;;;15.76;42.78
49627;BME280;35527;54.616;39.786;2022-09-09T09:56:38;100802.72;;;17.14;39.23
49627;BME280;35527;54.616;39.786;2022-09-09T09:59:44;100786.25;;;17.95;36.39
49627;BME280;35527;54.616;39.786;2022-09-09T10:03:00;100808.66;;;17.34;37.42
49627;BME280;35527;54.616;39.786;2022-09-09T10:06:08;100802.81;;;15.23;41.67
49627;BME280;35527;54.616;39.786;2022-09-09T10:09:37;100815.69;;;13.94;44.21
49627;BME280;35527;54.616;39.786;2022-09-09T10:13:02;100800.56;;;13.32;46.52
49627;BME280;35527;54.616;39.786;2022-09-09T10:19:37;100825.44;;;13.39;48.15
49627;BME280;35527;54.616;39.786;2022-09-09T10:22:50;100809.94;;;14.55;45.02
49627;BME280;35527;54.616;39.786;2022-09-09T10:32:48;100823.59;;;15.04;41.73
49627;BME280;35527;54.616;39.786;2022-09-09T10:39:32;100832.88;;;13.74;45.15
49627;BME280;35527;54.616;39.786;2022-09-09T10:42:39;100845.09;;;13.72;44.37
49627;BME280;35527;54.616;39.786;2022-09-09T10:49:27;100843.97;;;14.94;42.76
49627;BME280;35527;54.616;39.786;2022-09-09T10:56:15;100840.81;;;16.09;38.67
49627;BME280;35527;54.616;39.786;2022-09-09T10:59:24;100837.81;;;15.38;40.57
49627;BME280;35527;54.616;39.786;2022-09-09T11:02:31;100822.78;;;14.36;42.39
49627;BME280;35527;54.616;39.786;2022-09-09T11:05:43;100831.34;;;13.69;44.46
49627;BME280;35527;54.616;39.786;2022-09-09T11:08:51;100857.69;;;13.60;45.59
49627;BME280;35527;54.616;39.786;2022-09-09T11:11:58;100858.69;;;13.31;45.86
49627;BME280;35527;54.616;39.786;2022-09-09T11:18:39;100839.03;;;14.88;42.11
49627;BME280;35527;54.616;39.786;2022-09-09T11:21:48;100842.50;;;15.09;41.86
49627;BME280;35527;54.616;39.786;2022-09-09T11:38:27;100827.38;;;14.75;40.04
49627;BME280;35527;54.616;39.786;2022-09-09T11:41:36;100844.03;;;13.78;43.86
49627;BME280;35527;54.616;39.786;2022-09-09T11:44:43;100861.50;;;13.49;44.98
49627;BME280;35527;54.616;39.786;2022-09-09T11:47:57;100855.81;;;13.12;45.73
49627;BME280;35527;54.616;39.786;2022-09-09T11:51:03;100857.53;;;13.39;46.30
49627;BME280;35527;54.616;39.786;2022-09-09T11:54:32;100839.13;;;13.94;46.33
49627;BME280;35527;54.616;39.786;2022-09-09T11:57:41;100827.75;;;14.20;41.24
49627;BME280;35527;54.616;39.786;2022-09-09T12:00:52;100841.44;;;13.28;42.19
49627;BME280;35527;54.616;39.786;2022-09-09T12:10:23;100861.59;;;13.71;42.16
49627;BME280;35527;54.616;39.786;2022-09-09T12:13:29;100837.28;;;14.43;41.05
49627;BME280;35527;54.616;39.786;2022-09-09T12:16:37;100836.50;;;15.07;39.67
49627;BME280;35527;54.616;39.786;2022-09-09T12:19:44;100844.56;;;14.33;41.35
49627;BME280;35527;54.616;39.786;2022-09-09T12:29:29;100805.00;;;13.53;43.95
49627;BME280;35527;54.616;39.786;2022-09-09T12:32:35;100851.59;;;13.84;43.63
49627;BME280;35527;54.616;39.786;2022-09-09T12:35:39;100809.81;;;13.89;43.02
49627;BME280;35527;54.616;39.786;2022-09-09T12:38:45;100847.38;;;14.52;41.61
49627;BME280;35527;54.616;39.786;2022-09-09T12:41:52;100838.69;;;14.05;42.94
49627;BME280;35527;54.616;39.786;2022-09-09T12:45:02;100848.22;;;13.32;42.00
49627;BME280;35527;54.616;39.786;2022-09-09T12:48:07;100856.25;;;12.70;42.71
49627;BME280;35527;54.616;39.786;2022-09-09T12:51:37;100851.75;;;12.76;43.96
49627;BME280;35527;54.616;39.786;2022-09-09T12:54:44;100834.63;;;12.97;43.43
49627;BME280;35527;54.616;39.786;2022-09-09T12:57:54;100843.22;;;13.24;44.46
49627;BME280;35527;54.616;39.786;2022-09-09T13:01:00;100856.03;;;13.32;43.96
49627;BME280;35527;54.616;39.786;2022-09-09T13:04:19;100845.28;;;13.68;42.67
49627;BME280;35527;54.616;39.786;2022-09-09T13:07:22;100845.41;;;13.88;42.44
49627;BME280;35527;54.616;39.786;2022-09-09T13:10:33;100814.41;;;13.82;41.50
49627;BME280;35527;54.616;39.786;2022-09-09T13:13:40;100837.81;;;13.82;42.27
49627;BME280;35527;54.616;39.786;2022-09-09T13:16:58;100841.41;;;13.78;42.05
49627;BME280;35527;54.616;39.786;2022-09-09T13:20:02;100824.50;;;13.66;42.54
49627;BME280;35527;54.616;39.786;2022-09-09T13:23:11;100846.06;;;13.45;43.32
49627;BME280;35527;54.616;39.786;2022-09-09T13:26:26;100827.06;;;13.16;43.71
49627;BME280;35527;54.616;39.786;2022-09-09T13:29:33;100821.75;;;12.93;44.61
49627;BME280;35527;54.616;39.786;2022-09-09T13:32:37;100840.41;;;13.05;46.09
49627;BME280;35527;54.616;39.786;2022-09-09T13:38:56;100835.22;;;13.05;45.48
49627;BME280;35527;54.616;39.786;2022-09-09T13:42:01;100813.13;;;12.92;45.95
49627;BME280;35527;54.616;39.786;2022-09-09T13:45:05;100835.59;;;12.93;45.02
49627;BME280;35527;54.616;39.786;2022-09-09T13:48:18;100836.81;;;12.83;44.81
49627;BME280;35527;54.616;39.786;2022-09-09T13:51:37;100843.84;;;12.79;44.80
49627;BME280;35527;54.616;39.786;2022-09-09T13:54:48;100837.75;;;12.80;44.88
49627;BME280;35527;54.616;39.786;2022-09-09T13:58:01;100845.69;;;12.76;44.54
49627;BME280;35527;54.616;39.786;2022-09-09T14:01:06;100830.78;;;12.54;45.69
49627;BME280;35527;54.616;39.786;2022-09-09T14:04:10;100831.63;;;12.55;46.59
49627;BME280;35527;54.616;39.786;2022-09-09T14:07:15;100846.38;;;12.53;46.61
49627;BME280;35527;54.616;39.786;2022-09-09T14:10:19;100827.94;;;12.34;44.63
49627;BME280;35527;54.616;39.786;2022-09-09T14:13:25;100831.06;;;12.15;45.35
49627;BME280;35527;54.616;39.786;2022-09-09T14:16:28;100837.09;;;11.86;45.56
49627;BME280;35527;54.616;39.786;2022-09-09T14:19:34;100819.78;;;11.54;47.01
49627;BME280;35527;54.616;39.786;2022-09-09T14:22:37;100834.81;;;11.41;47.30
49627;BME280;35527;54.616;39.786;2022-09-09T14:25:43;100851.34;;;11.36;48.24
49627;BME280;35527;54.616;39.786;2022-09-09T14:28:47;100836.97;;;11.24;49.40
49627;BME280;35527;54.616;39.786;2022-09-09T14:31:55;100833.03;;;11.09;49.72
49627;BME280;35527;54.616;39.786;2022-09-09T14:34:59;100851.16;;;11.09;49.56
49627;BME280;35527;54.616;39.786;2022-09-09T14:38:04;100854.00;;;10.98;50.73
49627;BME280;35527;54.616;39.786;2022-09-09T14:41:10;100829.25;;;10.87;50.71
49627;BME280;35527;54.616;39.786;2022-09-09T14:44:14;100855.84;;;10.95;50.61
49627;BME280;35527;54.616;39.786;2022-09-09T14:47:18;100846.44;;;10.91;51.87
49627;BME280;35527;54.616;39.786;2022-09-09T14:50:23;100852.25;;;11.00;50.77
49627;BME280;35527;54.616;39.786;2022-09-09T14:53:26;100857.19;;;11.10;51.07
49627;BME280;35527;54.616;39.786;2022-09-09T14:56:32;100845.31;;;11.01;51.83
49627;BME280;35527;54.616;39.786;2022-09-09T14:59:36;100848.72;;;11.03;51.12
49627;BME280;35527;54.616;39.786;2022-09-09T15:02:42;100871.06;;;11.09;51.82
49627;BME280;35527;54.616;39.786;2022-09-09T15:05:45;100868.63;;;11.01;53.08
49627;BME280;35527;54.616;39.786;2022-09-09T15:08:50;100857.75;;;10.87;54.26
49627;BME280;35527;54.616;39.786;2022-09-09T15:11:53;100867.25;;;10.88;54.60
49627;BME280;35527;54.616;39.786;2022-09-09T15:14:58;100853.63;;;10.79;56.22
49627;BME280;35527;54.616;39.786;2022-09-09T15:18:02;100869.78;;;10.89;58.31
49627;BME280;35527;54.616;39.786;2022-09-09T15:21:20;100869.16;;;10.79;60.21
49627;BME280;35527;54.616;39.786;2022-09-09T15:24:23;100860.09;;;10.60;57.81
49627;BME280;35527;54.616;39.786;2022-09-09T15:27:29;100840.72;;;10.39;58.13
49627;BME280;35527;54.616;39.786;2022-09-09T15:30:34;100870.81;;;10.43;58.38
49627;BME280;35527;54.616;39.786;2022-09-09T15:33:37;100880.66;;;10.24;60.20
49627;BME280;35527;54.616;39.786;2022-09-09T15:36:44;100865.59;;;10.01;60.93
49627;BME280;35527;54.616;39.786;2022-09-09T15:39:51;100879.50;;;9.96;61.59
49627;BME280;35527;54.616;39.786;2022-09-09T15:42:55;100883.16;;;9.84;62.94
49627;BME280;35527;54.616;39.786;2022-09-09T15:46:14;100897.94;;;9.79;64.13
49627;BME280;35527;54.616;39.786;2022-09-09T15:49:25;100902.47;;;9.66;63.21
49627;BME280;35527;54.616;39.786;2022-09-09T15:52:31;100876.06;;;9.48;62.84
49627;BME280;35527;54.616;39.786;2022-09-09T15:55:36;100883.94;;;9.41;63.49
49627;BME280;35527;54.616;39.786;2022-09-09T15:58:39;100850.00;;;9.10;65.39
49627;BME280;35527;54.616;39.786;2022-09-09T16:01:42;100901.34;;;9.31;66.25
49627;BME280;35527;54.616;39.786;2022-09-09T16:04:48;100902.44;;;9.16;66.96
49627;BME280;35527;54.616;39.786;2022-09-09T16:07:52;100909.34;;;9.14;67.09
49627;BME280;35527;54.616;39.786;2022-09-09T16:10:54;100918.09;;;9.07;69.13
49627;BME280;35527;54.616;39.786;2022-09-09T16:13:58;100913.06;;;8.95;71.54
49627;BME280;35527;54.616;39.786;2022-09-09T16:17:03;100920.97;;;8.84;72.13
49627;BME280;35527;54.616;39.786;2022-09-09T16:20:08;100911.63;;;8.75;73.26
49627;BME280;35527;54.616;39.786;2022-09-09T16:23:12;100928.78;;;8.79;72.59
49627;BME280;35527;54.616;39.786;2022-09-09T16:26:17;100942.63;;;8.72;73.55
49627;BME280;35527;54.616;39.786;2022-09-09T16:29:22;100920.50;;;8.56;74.03
49627;BME280;35527;54.616;39.786;2022-09-09T16:32:26;100940.25;;;8.59;74.33
49627;BME280;35527;54.616;39.786;2022-09-09T16:35:28;100930.06;;;8.48;75.12
49627;BME280;35527;54.616;39.786;2022-09-09T16:38:37;100917.31;;;8.35;75.89
49627;BME280;35527;54.616;39.786;2022-09-09T16:41:42;100940.47;;;8.42;76.34
49627;BME280;35527;54.616;39.786;2022-09-09T16:44:47;100936.22;;;8.34;77.42
49627;BME280;35527;54.616;39.786;2022-09-09T16:47:53;100939.75;;;8.27;78.23
49627;BME280;35527;54.616;39.786;2022-09-09T16:51:05;100952.63;;;8.26;79.00
49627;BME280;35527;54.616;39.786;2022-09-09T16:54:11;100929.56;;;8.12;79.12
49627;BME280;35527;54.616;39.786;2022-09-09T16:57:20;100963.00;;;8.23;79.48
49627;BME280;35527;54.616;39.786;2022-09-09T17:00:24;100939.94;;;8.09;79.70
49627;BME280;35527;54.616;39.786;2022-09-09T17:03:27;100957.06;;;8.15;80.96
49627;BME280;35527;54.616;39.786;2022-09-09T17:06:32;100938.34;;;7.97;82.60
49627;BME280;35527;54.616;39.786;2022-09-09T17:09:41;100943.56;;;7.93;83.86
49627;BME280;35527;54.616;39.786;2022-09-09T17:12:45;100970.13;;;7.99;83.88
49627;BME280;35527;54.616;39.786;2022-09-09T17:15:49;100957.34;;;7.85;84.28
49627;BME280;35527;54.616;39.786;2022-09-09T17:18:54;100971.06;;;7.89;84.82
49627;BME280;35527;54.616;39.786;2022-09-09T17:22:01;100981.38;;;7.89;85.54
49627;BME280;35527;54.616;39.786;2022-09-09T17:25:23;100978.00;;;7.81;86.14
49627;BME280;35527;54.616;39.786;2022-09-09T17:28:28;100961.84;;;7.63;86.42
49627;BME280;35527;54.616;39.786;2022-09-09T17:31:34;100973.84;;;7.66;87.08
49627;BME280;35527;54.616;39.786;2022-09-09T17:34:37;100995.28;;;7.71;87.32
49627;BME280;35527;54.616;39.786;2022-09-09T17:37:41;100967.91;;;7.58;87.69
49627;BME280;35527;54.616;39.786;2022-09-09T17:40:47;100991.00;;;7.68;87.56
49627;BME280;35527;54.616;39.786;2022-09-09T17:43:52;100984.22;;;7.57;87.53
49627;BME280;35527;54.616;39.786;2022-09-09T17:46:58;101000.47;;;7.66;87.83
49627;BME280;35527;54.616;39.786;2022-09-09T17:50:02;100995.41;;;7.54;88.79
49627;BME280;35527;54.616;39.786;2022-09-09T17:53:05;100994.59;;;7.46;90.09
49627;BME280;35527;54.616;39.786;2022-09-09T17:56:16;100986.94;;;7.37;90.65
49627;BME280;35527;54.616;39.786;2022-09-09T17:59:20;100985.28;;;7.33;91.98
49627;BME280;35527;54.616;39.786;2022-09-09T18:02:24;100972.44;;;7.25;92.92